FW6021 Weather Reports


Display with metric or nautical units.
time (UTC)temp
F
wind
direction
speed
MPH
gust
MPH
rain 1hr
in
rain 24hr
in
rain mn
in
humidity
%
barometer
mb
20210803232539 56 105 1.0 2.0 0.00 0.00 0.00 65 1011.0
20210803231601 56 90 3.0 3.0 0.00 0.00 0.00 65 1011.0
20210803230529 56 90 1.0 3.0 0.00 0.00 0.00 64 1011.0
20210803225518 56 113 1.0 2.0 0.00 0.00 0.00 64 1011.0
20210803224526 56 0.0 0.0 0.00 0.00 0.00 63 1011.0
20210803223529 56 0.0 0.0 0.00 0.00 0.00 63 1011.0
20210803222530 56 0.0 0.0 0.00 0.00 0.00 63 1011.0
20210803221527 57 0.0 0.0 0.00 0.00 0.00 62 1011.0
20210803220601 57 0.0 0.0 0.00 0.00 0.00 62 1011.0
20210803215515 57 0.0 0.0 0.00 0.00 0.00 62 1011.0
20210803214519 58 0.0 0.0 0.00 0.00 0.00 61 1010.8
20210803213522 58 0.0 0.0 0.00 0.00 0.00 60 1010.0
20210803212528 58 0.0 0.0 0.00 0.00 0.00 60 1010.0
20210803211547 58 0.0 0.0 0.00 0.00 0.00 59 1010.0
20210803210526 59 0.0 0.0 0.00 0.00 0.00 59 1010.0
20210803205517 59 0.0 0.0 0.00 0.00 0.00 58 1010.0
20210803204526 59 0.0 0.0 0.00 0.00 0.00 58 1010.0
20210803203518 59 0.0 0.0 0.00 0.00 0.00 57 1010.0
20210803202528 60 0.0 0.0 0.00 0.00 0.00 56 1010.0
20210803201528 60 0.0 0.0 0.00 0.00 0.00 56 1010.0
20210803200554 60 0.0 0.0 0.00 0.00 0.00 55 1010.0
20210803195553 61 0.0 0.0 0.00 0.00 0.00 54 1010.0
20210803194539 62 0.0 0.0 0.00 0.00 0.00 54 1010.0
20210803193531 62 113 1.0 2.0 0.00 0.00 0.00 53 1010.0
20210803192548 63 113 1.0 2.0 0.00 0.00 0.00 52 1010.0
20210803191535 63 0.0 0.0 0.00 0.00 0.00 52 1010.0
20210803190546 64 0.0 0.0 0.00 0.00 0.00 51 1010.0
20210803185516 65 90 0.0 2.0 0.00 0.00 0.00 50 1010.0
20210803184602 65 0.0 0.0 0.00 0.00 0.00 50 1010.0
20210803183553 66 113 0.0 1.0 0.00 0.00 0.00 50 1010.0
20210803182515 66 68 0.0 2.0 0.00 0.00 0.00 49 1010.0
20210803181547 66 113 0.0 2.0 0.00 0.00 0.00 49 1010.0
20210803180527 67 0.0 0.0 0.00 0.00 0.00 48 1010.0
20210803175547 67 113 0.0 1.0 0.00 0.00 0.00 48 1010.0
20210803174527 68 0.0 0.0 0.00 0.00 0.00 47 1010.0
20210803173546 69 164 1.0 3.0 0.00 0.00 0.00 47 1010.0
20210803172522 70 135 0.0 1.0 0.00 0.00 0.00 47 1010.0
20210803171527 71 135 0.0 1.0 0.00 0.00 0.00 46 1010.0
20210803170600 71 0.0 0.0 0.00 0.00 0.00 46 1010.0
20210803165521 73 158 0.0 1.0 0.00 0.00 0.00 45 1010.0
20210803164532 74 145 1.0 2.0 0.00 0.00 0.00 44 1010.0
20210803163542 75 144 0.0 2.0 0.00 0.00 0.00 45 1010.0
20210803162552 76 158 1.0 2.0 0.00 0.00 0.00 45 1010.0
20210803161527 75 153 1.0 3.0 0.00 0.00 0.00 47 1010.0
20210803160536 74 145 1.0 2.0 0.00 0.00 0.00 46 1010.0
20210803155533 73 180 1.0 2.0 0.00 0.00 0.00 46 1010.0
20210803154522 75 193 1.0 2.0 0.00 0.00 0.00 48 1010.0
20210803153538 73 148 1.0 2.0 0.00 0.00 0.00 48 1010.0
20210803152602 73 180 1.0 1.0 0.00 0.00 0.00 46 1010.0
20210803151530 75 183 2.0 3.0 0.00 0.00 0.00 47 1010.1
20210803150554 75 140 2.0 3.0 0.00 0.00 0.00 46 1011.0
20210803145523 76 172 2.0 3.0 0.00 0.00 0.00 48 1011.0
20210803144518 74 175 1.0 2.0 0.00 0.00 0.00 48 1011.0
20210803143534 74 150 2.0 3.0 0.00 0.00 0.00 48 1011.0
20210803142518 73 155 1.0 2.0 0.00 0.00 0.00 48 1011.0
20210803141520 73 168 1.0 2.0 0.00 0.00 0.00 49 1011.0
20210803140532 72 158 2.0 2.0 0.00 0.00 0.00 49 1011.0
20210803135522 72 135 2.0 3.0 0.00 0.00 0.00 49 1011.0
20210803134533 73 158 2.0 3.0 0.00 0.00 0.00 49 1011.0
20210803133533 72 129 2.0 3.0 0.00 0.00 0.00 50 1011.0
20210803132548 72 140 2.0 2.0 0.00 0.00 0.00 51 1011.0
20210803131533 70 178 1.0 2.0 0.00 0.00 0.00 51 1011.0
20210803130524 70 160 2.0 3.0 0.00 0.00 0.00 51 1011.0
20210803125521 70 54 2.0 3.0 0.00 0.00 0.00 51 1010.0
20210803124523 68 90 1.0 2.0 0.00 0.00 0.00 51 1010.1
20210803123547 69 296 1.0 2.0 0.00 0.00 0.00 50 1011.0
20210803122519 69 93 3.0 4.0 0.00 0.00 0.00 51 1011.0
20210803121600 69 79 3.0 4.0 0.00 0.00 0.00 53 1011.0
20210803120516 68 49 2.0 2.0 0.00 0.00 0.00 53 1011.0
20210803115526 68 99 3.0 4.0 0.00 0.00 0.00 54 1010.0
20210803114531 67 98 2.0 3.0 0.00 0.00 0.00 55 1010.0
20210803113523 68 264 2.0 3.0 0.00 0.00 0.00 57 1010.0
20210803112539 67 97 2.0 3.0 0.00 0.00 0.00 59 1010.0
20210803111519 65 20 2.0 4.0 0.00 0.00 0.00 60 1010.0
20210803110516 64 245 2.0 4.0 0.00 0.00 0.00 60 1010.0
20210803105527 64 254 1.0 2.0 0.00 0.00 0.00 60 1010.0
20210803104536 64 328 1.0 2.0 0.00 0.00 0.00 61 1010.0
20210803103540 64 315 1.0 2.0 0.00 0.00 0.00 62 1010.0
20210803102556 65 203 0.0 2.0 0.00 0.00 0.00 62 1010.0
20210803101527 64 344 1.0 2.0 0.00 0.00 0.00 63 1010.0
20210803100517 65 90 1.0 2.0 0.00 0.00 0.00 64 1010.0
20210803095528 64 75 2.0 3.0 0.00 0.00 0.00 64 1010.0
20210803094530 64 325 1.0 3.0 0.00 0.00 0.00 65 1010.0
20210803093517 64 78 1.0 2.0 0.00 0.00 0.00 66 1010.0
20210803092532 64 98 3.0 4.0 0.00 0.00 0.00 67 1010.0
20210803091551 64 71 3.0 4.0 0.00 0.00 0.00 69 1010.0
20210803090549 63 2 2.0 3.0 0.00 0.00 0.00 69 1010.0
20210803085529 62 0.0 0.0 0.00 0.00 0.00 70 1010.0
20210803084538 62 287 2.0 3.0 0.00 0.00 0.00 71 1010.0
20210803083530 61 38 1.0 3.0 0.00 0.00 0.00 72 1010.0
20210803082547 60 26 1.0 2.0 0.00 0.00 0.00 73 1010.0
20210803081534 59 68 0.0 2.0 0.00 0.00 0.00 74 1010.0
20210803080537 58 0.0 0.0 0.00 0.00 0.00 74 1010.0
20210803075526 58 0.0 0.0 0.00 0.00 0.00 74 1010.0
20210803074539 57 263 0.0 1.0 0.00 0.00 0.00 74 1010.0
20210803073517 57 0.0 0.0 0.00 0.00 0.00 75 1010.0
20210803072527 56 0.0 0.0 0.00 0.00 0.00 75 1010.0
20210803071516 55 0.0 0.0 0.00 0.00 0.00 75 1010.0
20210803070540 55 0.0 0.0 0.00 0.00 0.00 75 1010.0
20210803065530 54 0.0 0.0 0.00 0.00 0.00 75 1010.0
20210803064530 54 0.0 0.0 0.00 0.00 0.00 75 1010.0
20210803063519 53 0.0 0.0 0.00 0.00 0.00 75 1010.0
20210803062518 52 0.0 0.0 0.00 0.00 0.00 75 1010.0
20210803061529 52 0.0 0.0 0.00 0.00 0.00 75 1010.0
20210803060528 51 0.0 0.0 0.00 0.00 0.00 74 1010.0
20210803055518 51 0.0 0.0 0.00 0.00 0.00 74 1010.0
20210803054517 50 0.0 0.0 0.00 0.00 0.00 74 1010.0
20210803053551 50 0.0 0.0 0.00 0.00 0.00 74 1010.0
20210803052515 50 0.0 0.0 0.00 0.00 0.00 74 1010.0
20210803051518 50 0.0 0.0 0.00 0.00 0.00 74 1010.0
20210803050544 50 0.0 0.0 0.00 0.00 0.00 73 1010.0
20210803045528 50 90 0.0 2.0 0.00 0.00 0.00 73 1010.0
20210803044531 50 0.0 0.0 0.00 0.00 0.00 73 1010.0
20210803043527 50 90 1.0 2.0 0.00 0.00 0.00 73 1010.0
20210803042517 50 90 1.0 2.0 0.00 0.00 0.00 73 1010.0
20210803041533 50 0.0 0.0 0.00 0.00 0.00 73 1010.0
20210803040518 50 0.0 0.0 0.00 0.00 0.00 73 1010.0
20210803035529 50 0.0 0.0 0.00 0.00 0.00 73 1010.0
20210803034527 50 0.0 0.0 0.00 0.00 0.00 72 1010.0
20210803033546 50 0.0 0.0 0.00 0.00 0.00 72 1010.0
20210803032524 50 0.0 0.0 0.00 0.00 0.00 72 1010.0
20210803031534 50 0.0 0.0 0.00 0.00 0.00 72 1010.0
20210803030526 50 0.0 0.0 0.00 0.00 0.00 72 1010.0
20210803025517 50 0.0 0.0 0.00 0.00 0.00 72 1010.0
20210803024547 51 0.0 0.0 0.00 0.00 0.00 72 1010.0
20210803023539 51 0.0 0.0 0.00 0.00 0.00 72 1010.0
20210803022527 51 0.0 0.0 0.00 0.00 0.00 72 1010.0
20210803021515 52 0.0 0.0 0.00 0.00 0.00 72 1010.0
20210803020519 52 0.0 0.0 0.00 0.00 0.00 72 1010.0
20210803015535 52 0.0 0.0 0.00 0.00 0.00 72 1010.0
20210803014519 52 0.0 0.0 0.00 0.00 0.00 72 1010.0
20210803013547 53 0.0 0.0 0.00 0.00 0.00 72 1010.0
20210803012555 53 0.0 0.0 0.00 0.00 0.00 71 1011.0
20210803011517 53 0.0 0.0 0.00 0.00 0.00 71 1010.8
20210803010525 53 0.0 0.0 0.00 0.00 0.00 71 1010.0
20210803005537 54 0.0 0.0 0.00 0.00 0.00 72 1011.0
20210803004535 54 0.0 0.0 0.00 0.00 0.00 71 1011.0
20210803003532 54 0.0 0.0 0.00 0.00 0.00 71 1011.0
20210803002534 54 0.0 0.0 0.00 0.00 0.00 71 1011.0
20210803001518 54 0.0 0.0 0.00 0.00 0.00 71 1011.0
20210803000529 54 90 1.0 1.0 0.00 0.00 0.00 71 1011.0
20210802235528 55 113 1.0 3.0 0.00 0.00 0.00 70 1011.0
20210802234537 55 0.0 0.0 0.00 0.00 0.00 70 1011.0
20210802233534 55 0.0 0.0 0.00 0.00 0.00 70 1011.0